createdAt,value
2022-10-17T00:00:13.306Z,11.34
2022-10-17T00:02:41.209Z,11.34
2022-10-17T00:05:09.589Z,11.38
2022-10-17T00:07:38.921Z,11.42
2022-10-17T00:10:07.634Z,11.43
2022-10-17T00:12:36.396Z,11.45
2022-10-17T00:15:05.909Z,11.41
2022-10-17T00:17:33.902Z,11.48
2022-10-17T00:20:02.133Z,11.50
2022-10-17T00:22:30.129Z,11.40
2022-10-17T00:24:59.404Z,11.50
2022-10-17T00:27:27.492Z,11.52
2022-10-17T00:29:55.642Z,11.65
2022-10-17T00:32:23.594Z,11.75
2022-10-17T00:34:51.526Z,11.72
2022-10-17T00:37:19.397Z,11.60
2022-10-17T00:39:47.271Z,11.51
2022-10-17T00:42:16.694Z,11.54
2022-10-17T00:45:19.780Z,11.61
2022-10-17T00:47:50.147Z,11.56
2022-10-17T00:50:18.087Z,11.47
2022-10-17T00:52:47.854Z,11.44
2022-10-17T00:55:18.964Z,11.37
2022-10-17T00:57:48.505Z,11.39
2022-10-17T01:00:17.892Z,11.42
2022-10-17T01:02:45.981Z,11.42
2022-10-17T01:05:14.512Z,11.52
2022-10-17T01:07:42.890Z,11.61
2022-10-17T01:10:11.724Z,11.69
2022-10-17T01:12:49.862Z,11.65
2022-10-17T01:15:27.173Z,11.70
2022-10-17T01:18:09.987Z,11.63
2022-10-17T01:21:12.136Z,11.67
2022-10-17T01:23:55.814Z,11.79
2022-10-17T01:26:28.425Z,11.91
2022-10-17T01:29:20.400Z,11.76
2022-10-17T01:31:55.862Z,11.63
2022-10-17T01:34:29.023Z,11.63
2022-10-17T01:37:03.861Z,11.55
2022-10-17T01:39:43.949Z,11.60
2022-10-17T01:42:16.391Z,11.55
2022-10-17T01:44:49.662Z,11.51
2022-10-17T01:47:21.852Z,11.56
2022-10-17T01:49:52.866Z,11.68
2022-10-17T01:52:23.585Z,11.68
2022-10-17T01:54:54.829Z,11.64
2022-10-17T01:57:27.343Z,11.76
2022-10-17T01:59:56.710Z,11.80
2022-10-17T02:02:26.702Z,11.79
2022-10-17T02:04:56.561Z,11.76
2022-10-17T02:07:24.577Z,11.79
2022-10-17T02:09:52.610Z,11.85
2022-10-17T02:12:39.226Z,11.84
2022-10-17T02:15:16.649Z,11.87
2022-10-17T02:17:52.067Z,11.70
2022-10-17T02:20:25.561Z,11.77
2022-10-17T02:22:57.476Z,11.78
2022-10-17T02:25:32.449Z,11.71
2022-10-17T02:28:06.370Z,11.69
2022-10-17T02:30:38.317Z,11.58
2022-10-17T02:33:11.289Z,11.56
2022-10-17T02:35:42.234Z,11.64
2022-10-17T02:38:11.740Z,11.57
2022-10-17T02:40:41.135Z,11.69
2022-10-17T02:43:09.162Z,11.78
2022-10-17T02:45:38.065Z,11.86
2022-10-17T02:48:09.744Z,11.86
2022-10-17T02:50:46.241Z,11.89
2022-10-17T02:53:16.860Z,11.92
2022-10-17T02:55:50.998Z,11.79
2022-10-17T02:58:21.877Z,11.83
2022-10-17T03:00:50.310Z,11.90
2022-10-17T03:03:25.818Z,11.91
2022-10-17T03:05:54.448Z,11.94
2022-10-17T03:08:22.798Z,11.92
2022-10-17T03:10:50.726Z,11.92
2022-10-17T03:13:18.698Z,11.95
2022-10-17T03:15:46.775Z,12.00
2022-10-17T03:18:15.286Z,11.97
2022-10-17T03:20:44.588Z,11.98
2022-10-17T03:23:12.454Z,11.91
2022-10-17T03:25:40.356Z,11.85
2022-10-17T03:28:08.439Z,11.90
2022-10-17T03:30:36.338Z,11.99
2022-10-17T03:33:04.272Z,11.88
2022-10-17T03:35:32.335Z,11.79
2022-10-17T03:38:01.585Z,11.68
2022-10-17T03:40:29.494Z,11.71
2022-10-17T03:42:57.366Z,11.76
2022-10-17T03:45:25.277Z,11.75
2022-10-17T03:47:53.340Z,11.75
2022-10-17T03:50:21.271Z,11.79
2022-10-17T03:52:49.410Z,11.71
2022-10-17T03:55:18.790Z,11.75
2022-10-17T03:57:46.686Z,11.67
2022-10-17T04:00:15.233Z,11.72
2022-10-17T04:02:45.010Z,11.74
2022-10-17T04:05:12.909Z,11.75
2022-10-17T04:07:40.813Z,11.66
2022-10-17T04:10:09.735Z,11.58
2022-10-17T04:12:39.032Z,11.52
2022-10-17T04:15:08.197Z,11.51
2022-10-17T04:17:38.112Z,11.47
2022-10-17T04:20:06.961Z,11.36
2022-10-17T04:22:34.890Z,11.40
2022-10-17T04:25:02.776Z,11.50
2022-10-17T04:27:30.688Z,11.49
2022-10-17T04:29:59.975Z,11.44
2022-10-17T04:32:28.123Z,11.33
2022-10-17T04:34:56.249Z,11.38
2022-10-17T04:37:24.123Z,11.40
2022-10-17T04:39:52.011Z,11.29
2022-10-17T04:42:19.876Z,11.32
2022-10-17T04:44:47.810Z,11.22
2022-10-17T04:47:17.105Z,11.27
2022-10-17T04:49:44.983Z,11.29
2022-10-17T04:52:12.889Z,11.22
2022-10-17T04:54:40.843Z,11.22
2022-10-17T04:57:08.709Z,11.21
2022-10-17T04:59:36.646Z,11.13
2022-10-17T05:02:04.595Z,11.01
2022-10-17T05:04:33.858Z,11.11
2022-10-17T05:07:01.928Z,11.08
2022-10-17T05:09:29.861Z,11.06
2022-10-17T05:11:57.760Z,11.03
2022-10-17T05:14:25.713Z,10.93
2022-10-17T05:16:53.572Z,10.85
2022-10-17T05:19:21.479Z,10.89
2022-10-17T05:21:50.750Z,10.92
2022-10-17T05:24:18.885Z,10.96
2022-10-17T05:26:46.852Z,10.88
2022-10-17T05:29:14.714Z,10.82
2022-10-17T05:31:42.716Z,10.84
2022-10-17T05:34:13.123Z,10.92
2022-10-17T05:36:41.874Z,10.90
2022-10-17T05:39:13.543Z,10.89
2022-10-17T05:41:41.442Z,10.88
2022-10-17T05:44:09.326Z,10.91
2022-10-17T05:46:37.203Z,10.91
2022-10-17T05:49:14.762Z,10.89
2022-10-17T05:51:53.066Z,10.91
2022-10-17T05:54:22.367Z,11.00
2022-10-17T05:56:52.937Z,10.94
2022-10-17T05:59:20.839Z,10.86
2022-10-17T06:01:48.940Z,10.94
2022-10-17T06:04:16.958Z,10.87
2022-10-17T06:06:44.998Z,10.81
2022-10-17T06:09:13.121Z,10.87
2022-10-17T06:11:42.385Z,10.93
2022-10-17T06:14:10.282Z,10.92
2022-10-17T06:16:38.465Z,10.82
2022-10-17T06:19:06.414Z,10.82
2022-10-17T06:21:36.696Z,10.89
2022-10-17T06:24:04.849Z,11.03
2022-10-17T06:26:32.790Z,10.99
2022-10-17T06:29:02.095Z,11.25
2022-10-17T06:31:30.214Z,11.60
2022-10-17T06:33:58.102Z,11.98
2022-10-17T06:36:26.041Z,12.29
2022-10-17T06:38:53.934Z,12.36
2022-10-17T06:41:21.806Z,12.66
2022-10-17T06:43:49.745Z,12.40
2022-10-17T06:46:20.368Z,12.81
2022-10-17T06:48:48.245Z,12.69
2022-10-17T06:51:16.159Z,12.73
2022-10-17T06:53:44.071Z,12.76
2022-10-17T06:56:12.299Z,12.55
2022-10-17T06:58:41.080Z,13.15
2022-10-17T07:01:10.642Z,13.12
2022-10-17T07:03:40.965Z,13.20
2022-10-17T07:06:10.843Z,13.31
2022-10-17T07:08:38.957Z,13.72
2022-10-17T07:11:10.914Z,14.00
2022-10-17T07:13:39.411Z,14.09
2022-10-17T07:16:08.024Z,14.20
2022-10-17T07:18:36.227Z,14.04
2022-10-17T07:21:05.898Z,14.24
2022-10-17T07:23:36.601Z,14.37
2022-10-17T07:26:07.181Z,14.46
2022-10-17T07:28:35.278Z,14.11
2022-10-17T07:31:07.216Z,14.54
2022-10-17T07:33:35.402Z,14.56
2022-10-17T07:36:05.688Z,14.50
2022-10-17T07:38:34.226Z,14.70
2022-10-17T07:41:03.328Z,14.76
2022-10-17T07:43:31.802Z,14.94
2022-10-17T07:45:59.718Z,15.13
2022-10-17T07:48:27.590Z,15.09
2022-10-17T07:50:55.506Z,15.26
2022-10-17T07:53:25.031Z,15.37
2022-10-17T07:55:52.902Z,15.60
2022-10-17T07:58:20.765Z,15.75
2022-10-17T08:00:51.101Z,15.97
2022-10-17T08:03:19.094Z,15.91
2022-10-17T08:05:47.001Z,16.12
2022-10-17T08:08:15.057Z,16.16
2022-10-17T08:10:44.800Z,16.10
2022-10-17T08:13:12.685Z,16.21
2022-10-17T08:15:40.603Z,16.30
2022-10-17T08:18:08.501Z,16.32
2022-10-17T08:20:36.806Z,16.34
2022-10-17T08:23:04.757Z,16.34
2022-10-17T08:25:33.429Z,16.32
2022-10-17T08:28:02.817Z,16.39
2022-10-17T08:30:31.251Z,16.45
2022-10-17T08:32:59.174Z,16.35
2022-10-17T08:35:27.073Z,16.42
2022-10-17T08:37:54.981Z,16.54
2022-10-17T08:40:26.763Z,16.83
2022-10-17T08:43:17.362Z,16.98
2022-10-17T08:45:48.174Z,16.99
2022-10-17T08:48:19.682Z,17.07
2022-10-17T08:50:50.098Z,17.32
2022-10-17T08:53:21.223Z,17.15
2022-10-17T08:55:50.288Z,17.34
2022-10-17T08:58:22.476Z,17.48
2022-10-17T09:00:57.281Z,17.52
2022-10-17T09:03:39.904Z,17.68
2022-10-17T09:06:15.438Z,17.53
2022-10-17T09:08:48.698Z,17.51
2022-10-17T09:11:27.206Z,17.51
2022-10-17T09:14:03.238Z,17.50
2022-10-17T09:16:41.310Z,17.65
2022-10-17T09:19:13.122Z,17.97
2022-10-17T09:21:44.507Z,18.04
2022-10-17T09:24:17.618Z,18.27
2022-10-17T09:26:46.714Z,18.23
2022-10-17T09:29:21.543Z,18.49
2022-10-17T09:31:54.836Z,18.69
2022-10-17T09:34:26.740Z,18.81
2022-10-17T09:36:55.542Z,18.81
2022-10-17T09:39:26.174Z,18.63
2022-10-17T09:41:55.931Z,18.94
2022-10-17T09:44:26.741Z,19.03
2022-10-17T09:47:06.426Z,18.92
2022-10-17T09:49:36.424Z,19.00
2022-10-17T09:52:06.322Z,19.11
2022-10-17T09:54:43.776Z,19.17
2022-10-17T09:57:12.614Z,18.90
2022-10-17T09:59:44.234Z,19.00
2022-10-17T10:02:23.315Z,18.99
2022-10-17T10:05:04.610Z,19.09
2022-10-17T10:07:35.750Z,19.18
2022-10-17T10:10:05.199Z,19.16
2022-10-17T10:12:35.610Z,19.17
2022-10-17T10:15:32.283Z,19.16
2022-10-17T10:18:00.205Z,19.19
2022-10-17T10:20:32.118Z,19.14
2022-10-17T10:23:16.042Z,19.20
2022-10-17T10:25:53.758Z,19.17
2022-10-17T10:28:23.790Z,19.23
2022-10-17T10:30:53.769Z,19.21
2022-10-17T10:33:22.377Z,19.26
2022-10-17T10:35:58.689Z,19.15
2022-10-17T10:38:26.828Z,19.27
2022-10-17T10:40:56.709Z,19.22
2022-10-17T10:43:35.898Z,19.32
2022-10-17T10:46:07.057Z,19.34
2022-10-17T10:48:36.972Z,19.28
2022-10-17T10:51:07.494Z,19.16
2022-10-17T10:53:43.273Z,19.16
2022-10-17T10:56:15.777Z,19.16
2022-10-17T10:58:52.800Z,19.16
2022-10-17T11:01:27.660Z,19.13
2022-10-17T11:04:09.111Z,19.12
2022-10-17T11:06:38.652Z,19.01
2022-10-17T11:09:18.546Z,19.04
2022-10-17T11:11:50.100Z,19.12
2022-10-17T11:14:22.584Z,19.10
2022-10-17T11:16:57.548Z,19.20
2022-10-17T11:19:27.151Z,19.25
2022-10-17T11:22:06.818Z,19.18
2022-10-17T11:24:39.470Z,19.18
2022-10-17T11:27:09.009Z,19.09
2022-10-17T11:29:40.067Z,19.15
2022-10-17T11:32:14.079Z,19.18
2022-10-17T11:34:44.478Z,19.12
2022-10-17T11:37:17.517Z,19.05
2022-10-17T11:39:49.457Z,19.15
2022-10-17T11:42:21.105Z,19.05
2022-10-17T11:44:50.231Z,19.03
2022-10-17T11:47:28.323Z,19.00
2022-10-17T11:51:59.647Z,19.04
2022-10-17T11:52:56.425Z,18.85
2022-10-17T11:55:26.062Z,19.03
2022-10-17T11:58:09.867Z,18.91
2022-10-17T12:00:48.921Z,18.84
2022-10-17T12:03:27.824Z,18.55
2022-10-17T12:05:59.157Z,18.34
2022-10-17T12:08:31.690Z,18.17
2022-10-17T12:11:02.308Z,18.05
2022-10-17T12:13:54.504Z,17.93
2022-10-17T12:16:45.494Z,17.88
2022-10-17T12:19:23.287Z,17.84
2022-10-17T12:21:59.413Z,17.82
2022-10-17T12:24:42.017Z,17.79
2022-10-17T12:27:42.449Z,17.78
2022-10-17T12:30:22.553Z,17.88
2022-10-17T12:33:07.388Z,17.88
2022-10-17T12:35:38.786Z,17.87
2022-10-17T12:38:25.989Z,17.80
2022-10-17T12:40:59.184Z,17.78
2022-10-17T12:46:46.451Z,17.66
2022-10-17T12:49:36.892Z,17.58
2022-10-17T12:52:46.125Z,17.58
2022-10-17T12:55:17.465Z,17.50
2022-10-17T12:57:52.549Z,17.39
2022-10-17T13:00:24.258Z,17.35
2022-10-17T13:02:55.947Z,17.34
2022-10-17T13:05:28.589Z,17.15
2022-10-17T13:07:57.141Z,17.26
2022-10-17T13:10:29.180Z,17.19
2022-10-17T13:13:04.481Z,17.06
2022-10-17T13:15:32.558Z,17.15
2022-10-17T13:18:02.157Z,17.18
2022-10-17T13:20:31.877Z,17.19
2022-10-17T13:23:00.850Z,17.20
2022-10-17T13:25:30.263Z,17.19
2022-10-17T13:28:13.678Z,17.17
2022-10-17T13:30:49.467Z,17.16
2022-10-17T13:33:29.146Z,17.18
2022-10-17T13:36:01.004Z,17.15
2022-10-17T13:38:32.254Z,17.16
2022-10-17T13:41:30.014Z,17.14
2022-10-17T13:43:51.058Z,17.12
2022-10-17T13:46:37.466Z,17.12
2022-10-17T13:49:18.075Z,17.15
2022-10-17T13:51:47.066Z,17.14
2022-10-17T13:54:33.397Z,17.14
2022-10-17T13:57:04.683Z,17.15
2022-10-17T13:59:38.562Z,17.17
2022-10-17T14:02:12.646Z,17.17
2022-10-17T14:05:11.852Z,17.20
2022-10-17T14:07:41.740Z,17.20
2022-10-17T14:10:21.722Z,17.18
2022-10-17T14:12:51.415Z,17.16
2022-10-17T14:15:20.009Z,17.20
2022-10-17T14:17:48.004Z,17.19
2022-10-17T14:21:01.593Z,17.15
2022-10-17T14:23:31.694Z,17.00
2022-10-17T14:26:12.008Z,16.99
2022-10-17T14:28:42.586Z,16.87
2022-10-17T14:31:15.206Z,16.90
2022-10-17T14:33:49.771Z,16.87
2022-10-17T14:36:19.600Z,17.23
2022-10-17T14:38:48.643Z,17.20
2022-10-17T14:44:18.471Z,17.15
2022-10-17T14:46:50.522Z,17.06
2022-10-17T14:49:24.579Z,17.09
2022-10-17T14:52:27.680Z,17.25
2022-10-17T14:54:55.700Z,17.08
2022-10-17T14:57:27.617Z,17.10
2022-10-17T14:59:57.839Z,17.16
2022-10-17T15:02:26.090Z,17.08
2022-10-17T15:04:54.797Z,17.19
2022-10-17T15:07:23.683Z,17.11
2022-10-17T15:09:53.221Z,17.15
2022-10-17T15:12:23.000Z,16.88
2022-10-17T15:14:51.743Z,17.05
2022-10-17T15:17:22.454Z,16.93
2022-10-17T15:19:50.785Z,16.81
2022-10-17T15:22:19.278Z,16.91
2022-10-17T15:24:47.395Z,16.86
2022-10-17T15:27:16.918Z,16.93
2022-10-17T15:29:44.808Z,16.89
2022-10-17T15:32:12.983Z,16.87
2022-10-17T15:34:42.639Z,17.02
2022-10-17T15:37:17.786Z,16.98
2022-10-17T15:39:48.065Z,16.97
2022-10-17T15:42:15.931Z,16.93
2022-10-17T15:44:44.619Z,16.80
2022-10-17T15:47:21.198Z,16.92
2022-10-17T15:49:50.517Z,16.75
2022-10-17T15:52:18.942Z,16.84
2022-10-17T15:54:47.080Z,16.71
2022-10-17T15:57:18.586Z,16.85
2022-10-17T15:59:47.262Z,16.81
2022-10-17T16:02:15.913Z,16.73
2022-10-17T16:04:44.164Z,16.68
2022-10-17T16:07:13.423Z,16.72
2022-10-17T16:09:41.353Z,16.69
2022-10-17T16:12:14.385Z,16.70
2022-10-17T16:14:42.378Z,16.84
2022-10-17T16:17:11.980Z,16.82
2022-10-17T16:19:39.857Z,16.62
2022-10-17T16:22:08.202Z,16.54
2022-10-17T16:24:37.529Z,16.77
2022-10-17T16:27:05.529Z,16.66
2022-10-17T16:29:33.422Z,16.75
2022-10-17T16:32:01.348Z,16.47
2022-10-17T16:34:30.730Z,16.74
2022-10-17T16:36:58.601Z,16.70
2022-10-17T16:42:00.672Z,16.59
2022-10-17T16:44:28.612Z,16.56
2022-10-17T16:46:56.885Z,16.44
2022-10-17T16:49:24.800Z,16.69
2022-10-17T16:51:52.685Z,16.51
2022-10-17T16:54:20.709Z,16.66
2022-10-17T16:56:49.909Z,16.42
2022-10-17T16:59:19.275Z,16.39
2022-10-17T17:01:47.149Z,16.50
2022-10-17T17:04:15.390Z,16.38
2022-10-17T17:09:16.302Z,16.53
2022-10-17T17:11:44.238Z,16.55
2022-10-17T17:14:12.594Z,16.59
2022-10-17T17:16:43.354Z,16.53
2022-10-17T17:19:13.259Z,16.43
2022-10-17T17:21:43.151Z,16.43
2022-10-17T17:24:11.037Z,16.64
2022-10-17T17:26:39.145Z,16.42
2022-10-17T17:29:07.154Z,16.65
2022-10-17T17:31:36.101Z,16.44
2022-10-17T17:34:05.794Z,16.45
2022-10-17T17:36:36.405Z,16.52
2022-10-17T17:39:06.384Z,16.45
2022-10-17T17:41:34.997Z,16.49
2022-10-17T17:44:03.454Z,16.37
2022-10-17T17:46:31.587Z,16.41
2022-10-17T17:48:59.773Z,16.42
2022-10-17T17:51:29.680Z,16.57
2022-10-17T17:53:57.820Z,16.44
2022-10-17T17:56:27.970Z,16.47
2022-10-17T17:58:57.291Z,16.45
2022-10-17T18:01:26.517Z,16.59
2022-10-17T18:03:55.491Z,16.64
2022-10-17T18:06:23.956Z,16.23
2022-10-17T18:08:54.694Z,16.68
2022-10-17T18:11:22.841Z,16.69
2022-10-17T18:13:55.083Z,16.33
2022-10-17T18:16:22.994Z,16.31
2022-10-17T18:18:50.927Z,16.60
2022-10-17T18:21:19.058Z,16.66
2022-10-17T18:23:48.681Z,16.50
2022-10-17T18:26:18.281Z,16.61
2022-10-17T18:28:46.352Z,16.61
2022-10-17T18:31:18.904Z,16.59
2022-10-17T18:33:47.128Z,16.37
2022-10-17T18:36:16.103Z,16.39
2022-10-17T18:38:44.163Z,16.46
2022-10-17T18:41:15.135Z,16.11
2022-10-17T18:43:45.704Z,15.97
2022-10-17T18:46:15.232Z,15.97
2022-10-17T18:48:45.408Z,15.89
2022-10-17T18:51:14.014Z,15.81
2022-10-17T18:53:42.695Z,15.73
2022-10-17T18:56:11.006Z,15.59
2022-10-17T18:58:39.302Z,15.54
2022-10-17T19:01:09.986Z,15.54
2022-10-17T19:03:38.266Z,15.50
2022-10-17T19:06:08.280Z,15.52
2022-10-17T19:08:36.906Z,15.50
2022-10-17T19:11:06.780Z,15.49
2022-10-17T19:13:34.802Z,15.43
2022-10-17T19:16:06.759Z,15.48
2022-10-17T19:18:36.581Z,15.49
2022-10-17T19:21:05.508Z,15.43
2022-10-17T19:23:35.500Z,15.42
2022-10-17T19:26:04.393Z,15.38
2022-10-17T19:28:32.939Z,15.41
2022-10-17T19:31:01.044Z,15.42
2022-10-17T19:36:05.431Z,15.32
2022-10-17T19:38:33.675Z,15.29
2022-10-17T19:41:01.639Z,15.22
2022-10-17T19:43:29.709Z,15.22
2022-10-17T19:45:58.473Z,15.19
2022-10-17T19:48:26.970Z,15.15
2022-10-17T19:50:55.280Z,15.14
2022-10-17T19:53:27.861Z,15.09
2022-10-17T19:55:55.849Z,15.05
2022-10-17T19:58:23.765Z,15.01
2022-10-17T20:00:54.422Z,15.01
2022-10-17T20:03:22.703Z,15.00
2022-10-17T20:05:50.823Z,14.99
2022-10-17T20:08:19.230Z,15.01
2022-10-17T20:10:48.841Z,15.01
2022-10-17T20:13:16.877Z,14.97
2022-10-17T20:15:54.990Z,15.01
2022-10-17T20:18:23.065Z,14.97
2022-10-17T20:20:51.249Z,14.98
2022-10-17T20:23:19.270Z,14.97
2022-10-17T20:25:52.908Z,14.97
2022-10-17T20:28:24.818Z,14.89
2022-10-17T20:30:52.942Z,14.89
2022-10-17T20:33:20.863Z,14.93
2022-10-17T20:35:48.770Z,14.97
2022-10-17T20:38:17.231Z,14.92
2022-10-17T20:40:45.222Z,14.91
2022-10-17T20:43:14.846Z,14.90
2022-10-17T20:45:51.230Z,14.98
2022-10-17T20:48:19.922Z,14.90
2022-10-17T20:50:47.785Z,14.84
2022-10-17T20:53:36.040Z,14.96
2022-10-17T20:56:07.200Z,14.96
2022-10-17T20:58:37.016Z,14.98
2022-10-17T21:01:08.774Z,15.14
2022-10-17T21:03:39.859Z,15.06
2022-10-17T21:06:10.886Z,15.03
2022-10-17T21:08:38.847Z,15.10
2022-10-17T21:11:11.286Z,15.12
2022-10-17T21:13:40.959Z,14.97
2022-10-17T21:16:10.546Z,15.09
2022-10-17T21:18:38.749Z,15.08
2022-10-17T21:21:11.917Z,15.14
2022-10-17T21:23:40.226Z,15.03
2022-10-17T21:26:09.756Z,15.17
2022-10-17T21:28:38.110Z,14.98
2022-10-17T21:31:12.854Z,15.14
2022-10-17T21:33:41.478Z,15.01
2022-10-17T21:36:10.114Z,14.95
2022-10-17T21:38:38.677Z,14.98
2022-10-17T21:41:07.822Z,15.08
2022-10-17T21:43:36.113Z,15.08
2022-10-17T21:46:04.851Z,15.13
2022-10-17T21:48:34.674Z,15.02
2022-10-17T21:51:04.265Z,15.03
2022-10-17T21:53:32.230Z,15.04
2022-10-17T21:56:01.637Z,15.03
2022-10-17T21:58:29.893Z,14.86
2022-10-17T22:01:05.394Z,15.09
2022-10-17T22:03:35.319Z,15.08
2022-10-17T22:06:18.400Z,15.08
2022-10-17T22:08:51.634Z,14.92
2022-10-17T22:11:21.179Z,15.10
2022-10-17T22:13:49.172Z,15.04
2022-10-17T22:16:17.753Z,14.93
2022-10-17T22:18:47.092Z,14.83
2022-10-17T22:21:16.442Z,14.97
2022-10-17T22:23:56.070Z,14.90
2022-10-17T22:26:23.997Z,14.96
2022-10-17T22:28:51.918Z,14.78
2022-10-17T22:31:20.478Z,14.84
2022-10-17T22:33:49.818Z,14.69
2022-10-17T22:36:17.722Z,14.85
2022-10-17T22:38:45.630Z,14.70
2022-10-17T22:41:13.517Z,14.79
2022-10-17T22:43:41.411Z,14.82
2022-10-17T22:46:10.409Z,14.72
2022-10-17T22:48:38.327Z,14.81
2022-10-17T22:51:07.769Z,14.75
2022-10-17T22:53:37.353Z,14.80
2022-10-17T22:56:07.379Z,14.65
2022-10-17T22:58:36.185Z,14.69
2022-10-17T23:01:04.890Z,14.70
2022-10-17T23:03:33.477Z,14.76
2022-10-17T23:06:01.562Z,14.78
2022-10-17T23:08:30.911Z,14.68
2022-10-17T23:10:59.136Z,14.80
2022-10-17T23:13:27.057Z,14.86
2022-10-17T23:15:57.417Z,14.79
2022-10-17T23:18:26.240Z,14.63
2022-10-17T23:20:54.766Z,14.66
2022-10-17T23:23:23.103Z,14.69
2022-10-17T23:25:52.406Z,14.66
2022-10-17T23:28:20.270Z,14.73
2022-10-17T23:30:48.213Z,14.64
2022-10-17T23:33:16.126Z,14.53
2022-10-17T23:35:44.048Z,14.70
2022-10-17T23:38:11.913Z,14.55
2022-10-17T23:40:39.807Z,14.58
2022-10-17T23:43:09.270Z,14.51
2022-10-17T23:45:37.389Z,14.51
2022-10-17T23:48:05.951Z,14.51
2022-10-17T23:50:33.859Z,14.46
2022-10-17T23:53:01.807Z,14.41
2022-10-17T23:55:30.309Z,14.42
2022-10-17T23:57:58.200Z,14.39
